sensor_id;sensor_type;location;lat;lon;timestamp;P1;durP1;ratioP1;P2;durP2;ratioP2
13255;SDS011;37913;48.370;10.930;2023-09-19T00:00:55;67.32;;;36.00;;
13255;SDS011;37913;48.370;10.930;2023-09-19T00:03:23;78.65;;;38.22;;
13255;SDS011;37913;48.370;10.930;2023-09-19T00:05:52;81.93;;;39.13;;
13255;SDS011;37913;48.370;10.930;2023-09-19T00:08:20;93.72;;;41.15;;
13255;SDS011;37913;48.370;10.930;2023-09-19T00:10:50;82.88;;;39.53;;
13255;SDS011;37913;48.370;10.930;2023-09-19T00:13:18;83.47;;;39.17;;
13255;SDS011;37913;48.370;10.930;2023-09-19T00:15:46;94.10;;;41.40;;
13255;SDS011;37913;48.370;10.930;2023-09-19T00:18:14;83.82;;;40.30;;
13255;SDS011;37913;48.370;10.930;2023-09-19T00:20:41;90.50;;;40.53;;
13255;SDS011;37913;48.370;10.930;2023-09-19T00:23:09;91.40;;;40.80;;
13255;SDS011;37913;48.370;10.930;2023-09-19T00:25:36;79.63;;;38.50;;
13255;SDS011;37913;48.370;10.930;2023-09-19T00:28:03;86.68;;;40.20;;
13255;SDS011;37913;48.370;10.930;2023-09-19T00:30:31;83.97;;;40.17;;
13255;SDS011;37913;48.370;10.930;2023-09-19T00:32:58;80.57;;;38.97;;
13255;SDS011;37913;48.370;10.930;2023-09-19T00:35:26;84.47;;;39.78;;
13255;SDS011;37913;48.370;10.930;2023-09-19T00:37:53;78.18;;;38.60;;
13255;SDS011;37913;48.370;10.930;2023-09-19T00:40:22;78.93;;;38.33;;
13255;SDS011;37913;48.370;10.930;2023-09-19T00:42:50;73.80;;;37.42;;
13255;SDS011;37913;48.370;10.930;2023-09-19T00:45:18;72.85;;;37.50;;
13255;SDS011;37913;48.370;10.930;2023-09-19T00:47:46;75.68;;;37.83;;
13255;SDS011;37913;48.370;10.930;2023-09-19T00:50:15;76.28;;;38.60;;
13255;SDS011;37913;48.370;10.930;2023-09-19T00:52:44;71.53;;;37.55;;
13255;SDS011;37913;48.370;10.930;2023-09-19T00:55:15;68.93;;;37.03;;
13255;SDS011;37913;48.370;10.930;2023-09-19T00:57:47;87.38;;;40.95;;
13255;SDS011;37913;48.370;10.930;2023-09-19T01:00:15;83.85;;;39.72;;
13255;SDS011;37913;48.370;10.930;2023-09-19T01:02:44;88.22;;;40.90;;
13255;SDS011;37913;48.370;10.930;2023-09-19T01:05:11;84.75;;;39.95;;
13255;SDS011;37913;48.370;10.930;2023-09-19T01:07:38;81.80;;;39.55;;
13255;SDS011;37913;48.370;10.930;2023-09-19T01:10:07;79.13;;;38.53;;
13255;SDS011;37913;48.370;10.930;2023-09-19T01:12:41;129.55;;;48.88;;
13255;SDS011;37913;48.370;10.930;2023-09-19T01:15:21;80.63;;;39.25;;
13255;SDS011;37913;48.370;10.930;2023-09-19T01:17:57;87.93;;;40.47;;
13255;SDS011;37913;48.370;10.930;2023-09-19T01:20:31;92.50;;;41.63;;
13255;SDS011;37913;48.370;10.930;2023-09-19T01:23:10;79.28;;;38.40;;
13255;SDS011;37913;48.370;10.930;2023-09-19T01:28:45;95.28;;;41.65;;
13255;SDS011;37913;48.370;10.930;2023-09-19T01:31:22;91.55;;;41.25;;
13255;SDS011;37913;48.370;10.930;2023-09-19T01:33:57;82.70;;;39.33;;
13255;SDS011;37913;48.370;10.930;2023-09-19T01:36:29;78.53;;;38.75;;
13255;SDS011;37913;48.370;10.930;2023-09-19T01:39:06;82.47;;;38.97;;
13255;SDS011;37913;48.370;10.930;2023-09-19T01:41:50;83.88;;;39.47;;
13255;SDS011;37913;48.370;10.930;2023-09-19T01:44:24;94.53;;;41.50;;
13255;SDS011;37913;48.370;10.930;2023-09-19T01:46:59;79.55;;;38.75;;
13255;SDS011;37913;48.370;10.930;2023-09-19T01:49:36;90.80;;;40.88;;
13255;SDS011;37913;48.370;10.930;2023-09-19T01:52:11;82.28;;;39.10;;
13255;SDS011;37913;48.370;10.930;2023-09-19T01:54:41;84.47;;;39.67;;
13255;SDS011;37913;48.370;10.930;2023-09-19T01:57:17;93.95;;;41.38;;
13255;SDS011;37913;48.370;10.930;2023-09-19T01:59:49;70.15;;;37.20;;
13255;SDS011;37913;48.370;10.930;2023-09-19T02:02:22;73.07;;;37.65;;
13255;SDS011;37913;48.370;10.930;2023-09-19T02:04:50;76.55;;;38.17;;
13255;SDS011;37913;48.370;10.930;2023-09-19T02:07:17;85.85;;;40.03;;
13255;SDS011;37913;48.370;10.930;2023-09-19T02:09:44;80.03;;;38.47;;
13255;SDS011;37913;48.370;10.930;2023-09-19T02:12:13;89.82;;;40.72;;
13255;SDS011;37913;48.370;10.930;2023-09-19T02:14:40;81.63;;;39.08;;
13255;SDS011;37913;48.370;10.930;2023-09-19T02:17:07;89.35;;;40.45;;
13255;SDS011;37913;48.370;10.930;2023-09-19T02:19:37;77.38;;;38.40;;
13255;SDS011;37913;48.370;10.930;2023-09-19T02:22:05;84.38;;;39.30;;
13255;SDS011;37913;48.370;10.930;2023-09-19T02:24:35;87.45;;;40.35;;
13255;SDS011;37913;48.370;10.930;2023-09-19T02:27:03;98.68;;;41.78;;
13255;SDS011;37913;48.370;10.930;2023-09-19T02:29:30;76.32;;;38.15;;
13255;SDS011;37913;48.370;10.930;2023-09-19T02:31:57;90.93;;;41.00;;
13255;SDS011;37913;48.370;10.930;2023-09-19T02:34:24;84.95;;;39.50;;
13255;SDS011;37913;48.370;10.930;2023-09-19T02:36:53;88.95;;;41.00;;
13255;SDS011;37913;48.370;10.930;2023-09-19T02:39:21;79.95;;;37.67;;
13255;SDS011;37913;48.370;10.930;2023-09-19T02:41:48;91.40;;;40.67;;
13255;SDS011;37913;48.370;10.930;2023-09-19T02:44:15;85.60;;;39.42;;
13255;SDS011;37913;48.370;10.930;2023-09-19T02:46:45;78.88;;;38.40;;
13255;SDS011;37913;48.370;10.930;2023-09-19T02:49:12;91.00;;;40.75;;
13255;SDS011;37913;48.370;10.930;2023-09-19T02:51:39;76.22;;;37.85;;
13255;SDS011;37913;48.370;10.930;2023-09-19T02:54:08;79.82;;;38.35;;
13255;SDS011;37913;48.370;10.930;2023-09-19T02:56:35;81.10;;;38.97;;
13255;SDS011;37913;48.370;10.930;2023-09-19T02:59:04;104.00;;;44.10;;
13255;SDS011;37913;48.370;10.930;2023-09-19T03:01:32;87.32;;;40.10;;
13255;SDS011;37913;48.370;10.930;2023-09-19T03:03:59;82.00;;;38.83;;
13255;SDS011;37913;48.370;10.930;2023-09-19T03:06:27;79.03;;;38.45;;
13255;SDS011;37913;48.370;10.930;2023-09-19T03:08:56;98.18;;;42.30;;
13255;SDS011;37913;48.370;10.930;2023-09-19T03:11:26;88.38;;;40.78;;
13255;SDS011;37913;48.370;10.930;2023-09-19T03:13:53;88.47;;;40.30;;
13255;SDS011;37913;48.370;10.930;2023-09-19T03:16:20;83.53;;;39.35;;
13255;SDS011;37913;48.370;10.930;2023-09-19T03:18:47;81.95;;;38.90;;
13255;SDS011;37913;48.370;10.930;2023-09-19T03:21:15;100.53;;;42.92;;
13255;SDS011;37913;48.370;10.930;2023-09-19T03:23:44;80.63;;;37.95;;
13255;SDS011;37913;48.370;10.930;2023-09-19T03:26:11;89.72;;;40.42;;
13255;SDS011;37913;48.370;10.930;2023-09-19T03:28:41;92.13;;;40.63;;
13255;SDS011;37913;48.370;10.930;2023-09-19T03:31:08;90.75;;;40.85;;
13255;SDS011;37913;48.370;10.930;2023-09-19T03:33:36;79.70;;;38.30;;
13255;SDS011;37913;48.370;10.930;2023-09-19T03:36:03;91.15;;;41.22;;
13255;SDS011;37913;48.370;10.930;2023-09-19T03:38:31;85.82;;;39.65;;
13255;SDS011;37913;48.370;10.930;2023-09-19T03:40:59;86.93;;;39.78;;
13255;SDS011;37913;48.370;10.930;2023-09-19T03:43:26;83.45;;;39.10;;
13255;SDS011;37913;48.370;10.930;2023-09-19T03:45:54;85.15;;;39.35;;
13255;SDS011;37913;48.370;10.930;2023-09-19T03:48:22;89.45;;;40.17;;
13255;SDS011;37913;48.370;10.930;2023-09-19T03:50:49;87.07;;;39.97;;
13255;SDS011;37913;48.370;10.930;2023-09-19T03:53:16;93.47;;;41.00;;
13255;SDS011;37913;48.370;10.930;2023-09-19T03:55:44;84.40;;;39.20;;
13255;SDS011;37913;48.370;10.930;2023-09-19T03:58:12;93.55;;;41.17;;
13255;SDS011;37913;48.370;10.930;2023-09-19T04:00:38;85.03;;;40.75;;
13255;SDS011;37913;48.370;10.930;2023-09-19T04:03:07;83.82;;;39.50;;
13255;SDS011;37913;48.370;10.930;2023-09-19T04:05:35;92.22;;;40.67;;
13255;SDS011;37913;48.370;10.930;2023-09-19T04:08:02;80.28;;;39.00;;
13255;SDS011;37913;48.370;10.930;2023-09-19T04:10:30;79.00;;;38.85;;
13255;SDS011;37913;48.370;10.930;2023-09-19T04:12:56;78.88;;;38.67;;
13255;SDS011;37913;48.370;10.930;2023-09-19T04:15:23;87.63;;;40.50;;
13255;SDS011;37913;48.370;10.930;2023-09-19T04:17:51;79.22;;;38.28;;
13255;SDS011;37913;48.370;10.930;2023-09-19T04:20:19;80.97;;;38.83;;
13255;SDS011;37913;48.370;10.930;2023-09-19T04:22:48;96.97;;;42.33;;
13255;SDS011;37913;48.370;10.930;2023-09-19T04:25:14;87.28;;;40.30;;
13255;SDS011;37913;48.370;10.930;2023-09-19T04:27:41;86.60;;;39.83;;
13255;SDS011;37913;48.370;10.930;2023-09-19T04:30:10;86.97;;;40.17;;
13255;SDS011;37913;48.370;10.930;2023-09-19T04:32:37;95.32;;;41.35;;
13255;SDS011;37913;48.370;10.930;2023-09-19T04:35:06;83.07;;;39.35;;
13255;SDS011;37913;48.370;10.930;2023-09-19T04:37:36;88.93;;;40.50;;
13255;SDS011;37913;48.370;10.930;2023-09-19T04:40:05;90.35;;;41.88;;
13255;SDS011;37913;48.370;10.930;2023-09-19T04:42:37;93.90;;;41.22;;
13255;SDS011;37913;48.370;10.930;2023-09-19T04:45:05;79.95;;;38.67;;
13255;SDS011;37913;48.370;10.930;2023-09-19T04:47:34;88.88;;;40.78;;
13255;SDS011;37913;48.370;10.930;2023-09-19T04:50:05;85.50;;;40.15;;
13255;SDS011;37913;48.370;10.930;2023-09-19T04:52:37;78.90;;;39.03;;
13255;SDS011;37913;48.370;10.930;2023-09-19T04:55:07;77.90;;;38.38;;
13255;SDS011;37913;48.370;10.930;2023-09-19T04:57:35;82.18;;;38.80;;
13255;SDS011;37913;48.370;10.930;2023-09-19T05:00:04;83.95;;;39.17;;
13255;SDS011;37913;48.370;10.930;2023-09-19T05:02:37;84.50;;;39.72;;
13255;SDS011;37913;48.370;10.930;2023-09-19T05:05:05;99.65;;;42.90;;
13255;SDS011;37913;48.370;10.930;2023-09-19T05:07:33;88.85;;;40.45;;
13255;SDS011;37913;48.370;10.930;2023-09-19T05:10:01;82.55;;;39.13;;
13255;SDS011;37913;48.370;10.930;2023-09-19T05:12:32;93.03;;;41.95;;
13255;SDS011;37913;48.370;10.930;2023-09-19T05:15:00;79.88;;;38.85;;
13255;SDS011;37913;48.370;10.930;2023-09-19T05:17:28;94.80;;;41.28;;
13255;SDS011;37913;48.370;10.930;2023-09-19T05:19:56;84.38;;;39.67;;
13255;SDS011;37913;48.370;10.930;2023-09-19T05:22:23;87.65;;;40.15;;
13255;SDS011;37913;48.370;10.930;2023-09-19T05:24:50;93.97;;;40.95;;
13255;SDS011;37913;48.370;10.930;2023-09-19T05:27:19;88.70;;;40.47;;
13255;SDS011;37913;48.370;10.930;2023-09-19T05:29:47;87.38;;;39.67;;
13255;SDS011;37913;48.370;10.930;2023-09-19T05:32:16;99.65;;;42.53;;
13255;SDS011;37913;48.370;10.930;2023-09-19T05:34:44;81.00;;;38.72;;
13255;SDS011;37913;48.370;10.930;2023-09-19T05:37:12;92.55;;;40.50;;
13255;SDS011;37913;48.370;10.930;2023-09-19T05:39:41;87.93;;;40.05;;
13255;SDS011;37913;48.370;10.930;2023-09-19T05:42:08;79.60;;;38.28;;
13255;SDS011;37913;48.370;10.930;2023-09-19T05:44:37;84.53;;;39.60;;
13255;SDS011;37913;48.370;10.930;2023-09-19T05:47:11;91.85;;;41.03;;
13255;SDS011;37913;48.370;10.930;2023-09-19T05:49:38;85.95;;;40.28;;
13255;SDS011;37913;48.370;10.930;2023-09-19T05:52:06;82.38;;;39.10;;
13255;SDS011;37913;48.370;10.930;2023-09-19T05:54:33;82.90;;;39.95;;
13255;SDS011;37913;48.370;10.930;2023-09-19T05:57:00;105.80;;;44.35;;
13255;SDS011;37913;48.370;10.930;2023-09-19T05:59:27;89.32;;;40.47;;
13255;SDS011;37913;48.370;10.930;2023-09-19T06:01:55;80.80;;;39.30;;
13255;SDS011;37913;48.370;10.930;2023-09-19T06:04:22;92.72;;;41.45;;
13255;SDS011;37913;48.370;10.930;2023-09-19T06:06:50;97.05;;;42.75;;
13255;SDS011;37913;48.370;10.930;2023-09-19T06:09:17;86.63;;;40.28;;
13255;SDS011;37913;48.370;10.930;2023-09-19T06:11:44;93.63;;;41.65;;
13255;SDS011;37913;48.370;10.930;2023-09-19T06:14:11;86.25;;;40.45;;
13255;SDS011;37913;48.370;10.930;2023-09-19T06:16:37;91.88;;;41.45;;
13255;SDS011;37913;48.370;10.930;2023-09-19T06:19:07;95.53;;;42.40;;
13255;SDS011;37913;48.370;10.930;2023-09-19T06:21:35;94.05;;;41.35;;
13255;SDS011;37913;48.370;10.930;2023-09-19T06:24:02;91.25;;;41.67;;
13255;SDS011;37913;48.370;10.930;2023-09-19T06:26:29;91.68;;;41.40;;
13255;SDS011;37913;48.370;10.930;2023-09-19T06:28:57;83.63;;;40.05;;
13255;SDS011;37913;48.370;10.930;2023-09-19T06:31:24;96.43;;;43.05;;
13255;SDS011;37913;48.370;10.930;2023-09-19T06:33:52;82.80;;;39.63;;
13255;SDS011;37913;48.370;10.930;2023-09-19T06:36:20;103.38;;;44.10;;
13255;SDS011;37913;48.370;10.930;2023-09-19T06:38:47;84.05;;;39.72;;
13255;SDS011;37913;48.370;10.930;2023-09-19T06:41:16;87.15;;;40.40;;
13255;SDS011;37913;48.370;10.930;2023-09-19T06:43:43;92.03;;;41.78;;
13255;SDS011;37913;48.370;10.930;2023-09-19T06:46:10;98.38;;;42.75;;
13255;SDS011;37913;48.370;10.930;2023-09-19T06:48:38;80.18;;;39.25;;
13255;SDS011;37913;48.370;10.930;2023-09-19T06:51:04;81.00;;;39.38;;
13255;SDS011;37913;48.370;10.930;2023-09-19T06:53:34;80.75;;;39.38;;
13255;SDS011;37913;48.370;10.930;2023-09-19T06:56:01;88.03;;;40.78;;
13255;SDS011;37913;48.370;10.930;2023-09-19T06:58:28;85.10;;;39.90;;
13255;SDS011;37913;48.370;10.930;2023-09-19T07:00:56;80.95;;;38.88;;
13255;SDS011;37913;48.370;10.930;2023-09-19T07:03:23;80.22;;;39.47;;
13255;SDS011;37913;48.370;10.930;2023-09-19T07:05:52;85.82;;;40.88;;
13255;SDS011;37913;48.370;10.930;2023-09-19T07:08:21;109.07;;;44.95;;
13255;SDS011;37913;48.370;10.930;2023-09-19T07:10:49;90.53;;;41.25;;
13255;SDS011;37913;48.370;10.930;2023-09-19T07:13:19;97.03;;;42.97;;
13255;SDS011;37913;48.370;10.930;2023-09-19T07:15:46;101.38;;;43.78;;
13255;SDS011;37913;48.370;10.930;2023-09-19T07:18:13;84.95;;;40.55;;
13255;SDS011;37913;48.370;10.930;2023-09-19T07:20:41;81.70;;;39.72;;
13255;SDS011;37913;48.370;10.930;2023-09-19T07:23:14;92.97;;;41.58;;
13255;SDS011;37913;48.370;10.930;2023-09-19T07:25:43;90.75;;;41.92;;
13255;SDS011;37913;48.370;10.930;2023-09-19T07:28:12;92.35;;;42.17;;
13255;SDS011;37913;48.370;10.930;2023-09-19T07:30:39;93.25;;;42.15;;
13255;SDS011;37913;48.370;10.930;2023-09-19T07:33:07;99.53;;;42.60;;
13255;SDS011;37913;48.370;10.930;2023-09-19T07:35:36;95.50;;;42.70;;
13255;SDS011;37913;48.370;10.930;2023-09-19T07:38:05;92.93;;;42.95;;
13255;SDS011;37913;48.370;10.930;2023-09-19T07:40:32;98.75;;;44.40;;
13255;SDS011;37913;48.370;10.930;2023-09-19T07:43:00;83.68;;;41.55;;
13255;SDS011;37913;48.370;10.930;2023-09-19T07:45:28;103.82;;;45.47;;
13255;SDS011;37913;48.370;10.930;2023-09-19T07:47:56;83.60;;;43.47;;
13255;SDS011;37913;48.370;10.930;2023-09-19T07:50:23;105.90;;;49.33;;
13255;SDS011;37913;48.370;10.930;2023-09-19T07:52:51;95.63;;;47.90;;
13255;SDS011;37913;48.370;10.930;2023-09-19T07:55:20;89.68;;;46.30;;
13255;SDS011;37913;48.370;10.930;2023-09-19T07:57:49;88.32;;;46.90;;
13255;SDS011;37913;48.370;10.930;2023-09-19T08:00:16;83.63;;;47.28;;
13255;SDS011;37913;48.370;10.930;2023-09-19T08:02:44;88.88;;;49.08;;
13255;SDS011;37913;48.370;10.930;2023-09-19T08:05:12;89.95;;;50.63;;
13255;SDS011;37913;48.370;10.930;2023-09-19T08:07:42;88.68;;;50.10;;
13255;SDS011;37913;48.370;10.930;2023-09-19T08:10:10;84.95;;;48.97;;
13255;SDS011;37913;48.370;10.930;2023-09-19T08:12:38;90.47;;;50.60;;
13255;SDS011;37913;48.370;10.930;2023-09-19T08:15:11;89.07;;;50.53;;
13255;SDS011;37913;48.370;10.930;2023-09-19T08:17:38;96.72;;;53.42;;
13255;SDS011;37913;48.370;10.930;2023-09-19T08:20:07;100.45;;;56.08;;
13255;SDS011;37913;48.370;10.930;2023-09-19T08:22:41;81.90;;;53.58;;
13255;SDS011;37913;48.370;10.930;2023-09-19T08:25:11;89.57;;;55.60;;
13255;SDS011;37913;48.370;10.930;2023-09-19T08:27:38;85.72;;;54.50;;
13255;SDS011;37913;48.370;10.930;2023-09-19T08:30:05;95.45;;;55.05;;
13255;SDS011;37913;48.370;10.930;2023-09-19T08:32:32;91.20;;;52.22;;
13255;SDS011;37913;48.370;10.930;2023-09-19T08:34:59;91.45;;;51.13;;
13255;SDS011;37913;48.370;10.930;2023-09-19T08:37:29;88.13;;;49.92;;
13255;SDS011;37913;48.370;10.930;2023-09-19T08:39:55;83.53;;;47.90;;
13255;SDS011;37913;48.370;10.930;2023-09-19T08:42:22;86.78;;;48.63;;
13255;SDS011;37913;48.370;10.930;2023-09-19T08:44:50;78.93;;;47.38;;
13255;SDS011;37913;48.370;10.930;2023-09-19T08:47:22;90.75;;;50.03;;
13255;SDS011;37913;48.370;10.930;2023-09-19T08:49:59;93.25;;;51.75;;
13255;SDS011;37913;48.370;10.930;2023-09-19T08:52:32;94.53;;;52.58;;
13255;SDS011;37913;48.370;10.930;2023-09-19T08:55:07;95.20;;;52.25;;
13255;SDS011;37913;48.370;10.930;2023-09-19T08:57:45;90.53;;;51.22;;
13255;SDS011;37913;48.370;10.930;2023-09-19T09:00:14;99.20;;;52.35;;
13255;SDS011;37913;48.370;10.930;2023-09-19T09:02:43;84.05;;;50.17;;
13255;SDS011;37913;48.370;10.930;2023-09-19T09:05:13;93.60;;;53.95;;
13255;SDS011;37913;48.370;10.930;2023-09-19T09:07:42;97.80;;;54.88;;
13255;SDS011;37913;48.370;10.930;2023-09-19T09:10:10;87.60;;;54.85;;
13255;SDS011;37913;48.370;10.930;2023-09-19T09:12:38;97.00;;;58.20;;
13255;SDS011;37913;48.370;10.930;2023-09-19T09:15:06;84.80;;;54.90;;
13255;SDS011;37913;48.370;10.930;2023-09-19T09:17:36;83.70;;;53.10;;
13255;SDS011;37913;48.370;10.930;2023-09-19T09:20:04;86.10;;;52.22;;
13255;SDS011;37913;48.370;10.930;2023-09-19T09:22:33;78.00;;;49.90;;
13255;SDS011;37913;48.370;10.930;2023-09-19T09:25:03;88.93;;;52.17;;
13255;SDS011;37913;48.370;10.930;2023-09-19T09:27:30;86.47;;;51.53;;
13255;SDS011;37913;48.370;10.930;2023-09-19T09:29:57;87.78;;;52.22;;
13255;SDS011;37913;48.370;10.930;2023-09-19T09:32:25;85.88;;;52.15;;
13255;SDS011;37913;48.370;10.930;2023-09-19T09:34:55;85.30;;;50.70;;
13255;SDS011;37913;48.370;10.930;2023-09-19T09:37:23;91.70;;;52.05;;
13255;SDS011;37913;48.370;10.930;2023-09-19T09:39:52;85.22;;;51.65;;
13255;SDS011;37913;48.370;10.930;2023-09-19T09:42:31;97.82;;;56.20;;
13255;SDS011;37913;48.370;10.930;2023-09-19T09:47:54;81.80;;;52.42;;
13255;SDS011;37913;48.370;10.930;2023-09-19T09:50:24;90.50;;;54.10;;
13255;SDS011;37913;48.370;10.930;2023-09-19T09:52:54;90.00;;;53.47;;
13255;SDS011;37913;48.370;10.930;2023-09-19T09:55:32;102.10;;;56.83;;
13255;SDS011;37913;48.370;10.930;2023-09-19T09:58:29;92.90;;;56.03;;
13255;SDS011;37913;48.370;10.930;2023-09-19T10:00:57;88.90;;;56.33;;
13255;SDS011;37913;48.370;10.930;2023-09-19T10:03:31;91.25;;;55.92;;
13255;SDS011;37913;48.370;10.930;2023-09-19T10:06:04;91.00;;;55.50;;
13255;SDS011;37913;48.370;10.930;2023-09-19T10:08:59;89.18;;;54.28;;
13255;SDS011;37913;48.370;10.930;2023-09-19T10:11:42;95.32;;;53.63;;
13255;SDS011;37913;48.370;10.930;2023-09-19T10:14:12;90.50;;;55.20;;
13255;SDS011;37913;48.370;10.930;2023-09-19T10:16:43;103.00;;;60.63;;
13255;SDS011;37913;48.370;10.930;2023-09-19T10:19:15;99.93;;;64.30;;
13255;SDS011;37913;48.370;10.930;2023-09-19T10:21:46;89.25;;;64.30;;
13255;SDS011;37913;48.370;10.930;2023-09-19T10:24:13;89.65;;;69.88;;
13255;SDS011;37913;48.370;10.930;2023-09-19T10:26:42;99.60;;;76.55;;
13255;SDS011;37913;48.370;10.930;2023-09-19T10:29:13;91.15;;;77.68;;
13255;SDS011;37913;48.370;10.930;2023-09-19T10:31:41;105.65;;;85.82;;
13255;SDS011;37913;48.370;10.930;2023-09-19T10:34:12;95.60;;;85.65;;
13255;SDS011;37913;48.370;10.930;2023-09-19T10:36:44;111.38;;;94.97;;
13255;SDS011;37913;48.370;10.930;2023-09-19T10:39:12;101.78;;;91.18;;
13255;SDS011;37913;48.370;10.930;2023-09-19T10:41:43;99.32;;;88.88;;
13255;SDS011;37913;48.370;10.930;2023-09-19T10:44:19;95.07;;;84.95;;
13255;SDS011;37913;48.370;10.930;2023-09-19T10:46:51;95.50;;;82.65;;
13255;SDS011;37913;48.370;10.930;2023-09-19T10:49:19;92.70;;;81.18;;
13255;SDS011;37913;48.370;10.930;2023-09-19T10:51:46;101.97;;;78.78;;
13255;SDS011;37913;48.370;10.930;2023-09-19T10:54:17;106.60;;;76.72;;
13255;SDS011;37913;48.370;10.930;2023-09-19T10:56:52;99.80;;;69.20;;
13255;SDS011;37913;48.370;10.930;2023-09-19T10:59:25;96.03;;;66.18;;
13255;SDS011;37913;48.370;10.930;2023-09-19T11:01:59;92.50;;;64.40;;
13255;SDS011;37913;48.370;10.930;2023-09-19T11:04:42;95.00;;;60.35;;
13255;SDS011;37913;48.370;10.930;2023-09-19T11:07:13;102.82;;;58.53;;
13255;SDS011;37913;48.370;10.930;2023-09-19T11:09:47;105.78;;;57.80;;
13255;SDS011;37913;48.370;10.930;2023-09-19T11:24:30;94.20;;;57.65;;
13255;SDS011;37913;48.370;10.930;2023-09-19T11:27:14;103.97;;;63.05;;
13255;SDS011;37913;48.370;10.930;2023-09-19T11:29:43;100.63;;;63.10;;
13255;SDS011;37913;48.370;10.930;2023-09-19T11:32:10;85.25;;;58.63;;
13255;SDS011;37913;48.370;10.930;2023-09-19T11:34:39;109.03;;;62.00;;
13255;SDS011;37913;48.370;10.930;2023-09-19T11:40:10;89.55;;;53.50;;
13255;SDS011;37913;48.370;10.930;2023-09-19T11:42:41;91.45;;;52.00;;
13255;SDS011;37913;48.370;10.930;2023-09-19T11:48:11;85.10;;;48.85;;
13255;SDS011;37913;48.370;10.930;2023-09-19T11:50:42;117.68;;;56.03;;
13255;SDS011;37913;48.370;10.930;2023-09-19T11:53:10;85.25;;;50.97;;
13255;SDS011;37913;48.370;10.930;2023-09-19T11:55:38;92.30;;;57.30;;
13255;SDS011;37913;48.370;10.930;2023-09-19T11:58:05;95.90;;;61.67;;
13255;SDS011;37913;48.370;10.930;2023-09-19T12:00:34;88.03;;;65.55;;
13255;SDS011;37913;48.370;10.930;2023-09-19T12:03:07;237.60;;;102.18;;
13255;SDS011;37913;48.370;10.930;2023-09-19T12:05:36;104.88;;;75.05;;
13255;SDS011;37913;48.370;10.930;2023-09-19T12:08:05;93.68;;;79.50;;
13255;SDS011;37913;48.370;10.930;2023-09-19T12:10:34;96.95;;;87.60;;
13255;SDS011;37913;48.370;10.930;2023-09-19T12:13:10;106.93;;;94.60;;
13255;SDS011;37913;48.370;10.930;2023-09-19T12:15:40;111.43;;;98.88;;
13255;SDS011;37913;48.370;10.930;2023-09-19T12:18:10;114.22;;;102.75;;
13255;SDS011;37913;48.370;10.930;2023-09-19T12:20:52;119.40;;;107.85;;
13255;SDS011;37913;48.370;10.930;2023-09-19T12:23:21;118.63;;;107.80;;
13255;SDS011;37913;48.370;10.930;2023-09-19T12:25:48;122.05;;;109.95;;
13255;SDS011;37913;48.370;10.930;2023-09-19T12:28:18;120.85;;;109.03;;
13255;SDS011;37913;48.370;10.930;2023-09-19T12:30:46;116.80;;;105.20;;
13255;SDS011;37913;48.370;10.930;2023-09-19T12:33:15;113.80;;;103.00;;
13255;SDS011;37913;48.370;10.930;2023-09-19T12:35:44;114.38;;;103.95;;
13255;SDS011;37913;48.370;10.930;2023-09-19T12:38:21;122.97;;;111.40;;
13255;SDS011;37913;48.370;10.930;2023-09-19T12:40:53;122.28;;;112.07;;
13255;SDS011;37913;48.370;10.930;2023-09-19T12:43:21;120.40;;;109.88;;
13255;SDS011;37913;48.370;10.930;2023-09-19T12:45:49;117.93;;;107.93;;
13255;SDS011;37913;48.370;10.930;2023-09-19T12:48:18;118.03;;;107.78;;
13255;SDS011;37913;48.370;10.930;2023-09-19T12:50:59;124.50;;;113.55;;
13255;SDS011;37913;48.370;10.930;2023-09-19T12:53:32;125.00;;;113.00;;
13255;SDS011;37913;48.370;10.930;2023-09-19T12:56:01;118.20;;;107.00;;
13255;SDS011;37913;48.370;10.930;2023-09-19T12:58:31;117.72;;;106.22;;
13255;SDS011;37913;48.370;10.930;2023-09-19T13:01:00;116.78;;;104.97;;
13255;SDS011;37913;48.370;10.930;2023-09-19T13:03:28;116.75;;;105.15;;
13255;SDS011;37913;48.370;10.930;2023-09-19T13:06:00;135.05;;;111.55;;
13255;SDS011;37913;48.370;10.930;2023-09-19T13:08:29;114.07;;;101.85;;
13255;SDS011;37913;48.370;10.930;2023-09-19T13:10:59;113.47;;;101.53;;
13255;SDS011;37913;48.370;10.930;2023-09-19T13:13:36;111.53;;;99.60;;
13255;SDS011;37913;48.370;10.930;2023-09-19T13:16:04;106.80;;;85.32;;
13255;SDS011;37913;48.370;10.930;2023-09-19T13:18:44;101.95;;;85.97;;
13255;SDS011;37913;48.370;10.930;2023-09-19T13:21:12;96.10;;;82.15;;
13255;SDS011;37913;48.370;10.930;2023-09-19T13:23:50;127.28;;;94.63;;
13255;SDS011;37913;48.370;10.930;2023-09-19T13:26:17;120.93;;;90.45;;
13255;SDS011;37913;48.370;10.930;2023-09-19T13:28:45;122.75;;;90.60;;
13255;SDS011;37913;48.370;10.930;2023-09-19T13:31:13;102.25;;;84.35;;
13255;SDS011;37913;48.370;10.930;2023-09-19T13:33:43;102.97;;;85.95;;
13255;SDS011;37913;48.370;10.930;2023-09-19T13:36:10;112.40;;;89.78;;
13255;SDS011;37913;48.370;10.930;2023-09-19T13:38:38;97.10;;;81.90;;
13255;SDS011;37913;48.370;10.930;2023-09-19T13:41:06;116.10;;;86.40;;
13255;SDS011;37913;48.370;10.930;2023-09-19T13:43:35;96.43;;;78.43;;
13255;SDS011;37913;48.370;10.930;2023-09-19T13:46:02;97.22;;;73.88;;
13255;SDS011;37913;48.370;10.930;2023-09-19T13:48:28;103.03;;;73.15;;
13255;SDS011;37913;48.370;10.930;2023-09-19T13:50:56;108.18;;;73.25;;
13255;SDS011;37913;48.370;10.930;2023-09-19T13:53:23;105.85;;;74.97;;
13255;SDS011;37913;48.370;10.930;2023-09-19T13:55:50;110.55;;;79.40;;
13255;SDS011;37913;48.370;10.930;2023-09-19T13:58:19;109.35;;;80.10;;
13255;SDS011;37913;48.370;10.930;2023-09-19T14:00:46;104.35;;;81.05;;
13255;SDS011;37913;48.370;10.930;2023-09-19T14:03:13;110.75;;;86.22;;
13255;SDS011;37913;48.370;10.930;2023-09-19T14:05:40;97.57;;;86.53;;
13255;SDS011;37913;48.370;10.930;2023-09-19T14:08:07;115.28;;;96.57;;
13255;SDS011;37913;48.370;10.930;2023-09-19T14:10:34;107.93;;;93.95;;
13255;SDS011;37913;48.370;10.930;2023-09-19T14:13:01;105.03;;;93.85;;
13255;SDS011;37913;48.370;10.930;2023-09-19T14:15:29;122.65;;;96.60;;
13255;SDS011;37913;48.370;10.930;2023-09-19T14:17:57;112.28;;;92.32;;
13255;SDS011;37913;48.370;10.930;2023-09-19T14:20:25;112.07;;;89.35;;
13255;SDS011;37913;48.370;10.930;2023-09-19T14:22:54;115.30;;;83.53;;
13255;SDS011;37913;48.370;10.930;2023-09-19T14:25:21;95.65;;;76.95;;
13255;SDS011;37913;48.370;10.930;2023-09-19T14:27:48;101.82;;;77.05;;
13255;SDS011;37913;48.370;10.930;2023-09-19T14:30:15;98.57;;;78.28;;
13255;SDS011;37913;48.370;10.930;2023-09-19T14:32:43;109.85;;;79.70;;
13255;SDS011;37913;48.370;10.930;2023-09-19T14:35:10;111.28;;;79.32;;
13255;SDS011;37913;48.370;10.930;2023-09-19T14:37:39;94.00;;;72.57;;
13255;SDS011;37913;48.370;10.930;2023-09-19T14:40:07;104.57;;;72.78;;
13255;SDS011;37913;48.370;10.930;2023-09-19T14:42:35;97.82;;;70.22;;